Time,TemperatureF,DewpointF,PressureIn,WindDirection,WindDirectionDegrees,WindSpeedMPH,WindSpeedGustMPH,Humidity,HourlyPrecipIn,Conditions,Clouds,dailyrainin,SoftwareType,DateUTC
2013-06-17 00:00:00,61.3,58.0,29.98,West,270,0.0,2.0,89,0.00,,---,0.00,VWS V14.01,2013-06-17 07:00:00,
2013-06-17 00:30:00,60.5,57.6,29.98,West,270,0.0,1.0,90,0.00,,---,0.00,VWS V14.01,2013-06-17 07:30:00,
2013-06-17 01:00:00,59.7,57.1,29.98,West,270,0.0,1.0,91,0.00,,---,0.00,VWS V14.01,2013-06-17 08:00:00,
2013-06-17 01:30:00,59.3,57.3,29.97,West,270,0.0,0.0,93,0.00,,---,0.00,VWS V14.01,2013-06-17 08:30:00,
2013-06-17 02:00:00,58.7,57.0,29.97,West,270,0.0,0.0,94,0.00,,---,0.00,VWS V14.01,2013-06-17 09:00:00,
2013-06-17 02:30:00,58.4,56.4,29.97,West,270,0.0,0.0,93,0.00,,---,0.00,VWS V14.01,2013-06-17 09:30:00,
2013-06-17 03:00:00,57.9,56.2,29.97,West,270,0.0,0.0,94,0.00,,---,0.00,VWS V14.01,2013-06-17 10:00:00,
2013-06-17 03:30:00,58.2,57.1,29.96,West,270,0.0,0.0,96,0.00,,---,0.00,VWS V14.01,2013-06-17 10:30:00,
2013-06-17 04:00:00,59.3,58.5,29.96,West,270,0.0,0.0,97,0.00,,---,0.00,VWS V14.01,2013-06-17 11:00:00,
2013-06-17 04:30:00,60.7,59.8,29.96,SE,135,1.0,4.0,97,0.00,,---,0.00,VWS V14.01,2013-06-17 11:30:00,
2013-06-17 05:00:00,61.3,59.9,29.97,SE,135,2.0,7.0,95,0.00,,---,0.00,VWS V14.01,2013-06-17 12:00:00,
2013-06-17 05:30:00,61.6,59.9,29.97,ESE,112,2.0,7.0,94,0.00,,---,0.00,VWS V14.01,2013-06-17 12:30:00,
2013-06-17 06:00:00,61.7,59.7,29.98,SE,135,2.0,6.0,93,0.00,,---,0.00,VWS V14.01,2013-06-17 13:00:00,
2013-06-17 06:30:00,61.9,59.9,29.99,SSE,158,2.0,7.0,93,0.00,,---,0.00,VWS V14.01,2013-06-17 13:30:00,
2013-06-17 07:00:00,62.1,59.5,29.99,ESE,112,4.0,8.0,91,0.00,,---,0.00,VWS V14.01,2013-06-17 14:00:00,
2013-06-17 07:30:00,62.5,59.5,30.00,East,90,2.0,6.0,90,0.00,,---,0.00,VWS V14.01,2013-06-17 14:30:00,
2013-06-17 08:00:00,63.0,59.7,30.00,SSE,158,2.0,6.0,89,0.00,,---,0.00,VWS V14.01,2013-06-17 15:00:00,
2013-06-17 08:30:00,64.0,60.4,30.01,East,90,1.0,5.0,88,0.00,,---,0.00,VWS V14.01,2013-06-17 15:30:00,
2013-06-17 09:00:00,64.3,60.0,30.02,SSW,202,2.0,7.0,86,0.00,,---,0.00,VWS V14.01,2013-06-17 16:00:00,
2013-06-17 09:30:00,65.2,60.6,30.02,SSW,202,3.0,6.0,85,0.00,,---,0.00,VWS V14.01,2013-06-17 16:30:00,
2013-06-17 10:00:00,66.4,61.1,30.01,SSW,202,2.0,6.0,83,0.00,,---,0.00,VWS V14.01,2013-06-17 17:00:00,
2013-06-17 10:30:00,68.2,61.1,30.00,SSW,202,4.0,10.0,78,0.00,,---,0.00,VWS V14.01,2013-06-17 17:30:00,
2013-06-17 11:00:00,70.2,61.5,30.00,SSW,202,4.0,10.0,74,0.00,,---,0.00,VWS V14.01,2013-06-17 18:00:00,
2013-06-17 11:30:00,71.6,62.1,30.00,South,180,4.0,11.0,72,0.00,,---,0.00,VWS V14.01,2013-06-17 18:30:00,
2013-06-17 12:00:00,71.6,61.7,30.00,SSW,202,5.0,11.0,71,0.00,,---,0.00,VWS V14.01,2013-06-17 19:00:00,
2013-06-17 12:30:00,72.1,62.2,30.00,South,180,6.0,12.0,71,0.00,,---,0.00,VWS V14.01,2013-06-17 19:30:00,
2013-06-17 13:00:00,71.4,61.9,29.99,SSW,202,8.0,14.0,72,0.00,,---,0.00,VWS V14.01,2013-06-17 20:00:00,
2013-06-17 13:30:00,71.5,62.0,29.98,South,180,7.0,16.0,72,0.00,,---,0.00,VWS V14.01,2013-06-17 20:30:00,
2013-06-17 14:00:00,71.8,61.9,29.97,South,180,7.0,15.0,71,0.00,,---,0.00,VWS V14.01,2013-06-17 21:00:00,
2013-06-17 14:30:00,71.5,62.0,29.98,South,180,7.0,16.0,72,0.00,,---,0.00,VWS V14.01,2013-06-17 21:30:00,
2013-06-17 14:58:00,71.9,62.0,29.96,SSW,208,10.0,16.0,71,0.00,,---,0.00,VWS V14.01,2013-06-17 21:58:00,
2013-06-17 15:00:00,71.8,61.9,29.97,South,180,7.0,15.0,71,0.00,,---,0.00,VWS V14.01,2013-06-17 22:00:00,
2013-06-17 15:28:00,72.5,62.6,29.95,South,186,6.0,16.0,71,0.00,,---,0.00,VWS V14.01,2013-06-17 22:28:00,
2013-06-17 15:30:00,72.5,62.6,29.95,South,186,6.0,16.0,71,0.00,,---,0.00,VWS V14.01,2013-06-17 22:30:00,
2013-06-17 15:58:00,72.1,62.6,29.94,SSW,199,8.0,17.0,72,0.00,,---,0.00,VWS V14.01,2013-06-17 22:58:00,
2013-06-17 16:00:00,71.9,62.0,29.96,SSW,208,10.0,16.0,71,0.00,,---,0.00,VWS V14.01,2013-06-17 23:00:00,
2013-06-17 16:28:00,71.3,61.8,29.93,SSW,202,12.0,18.0,72,0.00,,---,0.00,VWS V14.01,2013-06-17 23:28:00,
2013-06-17 16:30:00,72.5,62.6,29.95,South,186,6.0,16.0,71,0.00,,---,0.00,VWS V14.01,2013-06-17 23:30:00,
2013-06-17 16:58:00,71.1,62.0,29.92,South,172,1.0,17.0,73,0.00,,---,0.00,VWS V14.01,2013-06-17 23:58:00,
2013-06-17 17:00:00,72.1,62.6,29.94,SSW,199,8.0,17.0,72,0.00,,---,0.00,VWS V14.01,2013-06-18 00:00:00,
2013-06-17 17:28:00,72.5,61.8,29.92,South,189,9.0,15.0,69,0.00,,---,0.00,VWS V14.01,2013-06-18 00:28:00,
2013-06-17 17:30:00,71.3,61.8,29.93,SSW,202,12.0,18.0,72,0.00,,---,0.00,VWS V14.01,2013-06-18 00:30:00,
2013-06-17 17:58:00,74.0,62.4,29.91,South,181,5.0,10.0,67,0.00,,---,0.00,VWS V14.01,2013-06-18 00:58:00,
2013-06-17 18:00:00,71.1,62.0,29.92,South,172,1.0,17.0,73,0.00,,---,0.00,VWS V14.01,2013-06-18 01:00:00,
2013-06-17 18:28:00,74.7,62.2,29.91,South,171,2.0,8.0,65,0.00,,---,0.00,VWS V14.01,2013-06-18 01:28:00,
2013-06-17 18:30:00,72.5,61.8,29.92,South,189,9.0,15.0,69,0.00,,---,0.00,VWS V14.01,2013-06-18 01:30:00,
2013-06-17 19:00:00,74.0,62.4,29.91,South,181,5.0,10.0,67,0.00,,---,0.00,VWS V14.01,2013-06-18 02:00:00,
2013-06-17 19:30:00,74.7,62.2,29.91,South,171,2.0,8.0,65,0.00,,---,0.00,VWS V14.01,2013-06-18 02:30:00,
2013-06-17 21:28:00,66.1,61.5,29.92,SSE,158,3.0,7.0,85,0.00,,---,0.00,VWS V14.01,2013-06-18 04:28:00,
2013-06-17 21:30:00,66.1,61.5,29.92,SSE,158,3.0,7.0,85,0.00,,---,0.00,VWS V14.01,2013-06-18 04:30:00,
2013-06-17 21:58:00,65.4,61.4,29.92,SSE,156,2.0,4.0,87,0.00,,---,0.00,VWS V14.01,2013-06-18 04:58:00,
2013-06-17 22:28:00,64.7,61.4,29.92,SSE,156,0.0,3.0,89,0.00,,---,0.00,VWS V14.01,2013-06-18 05:28:00,
2013-06-17 22:30:00,66.1,61.5,29.92,SSE,158,3.0,7.0,85,0.00,,---,0.00,VWS V14.01,2013-06-18 05:30:00,
2013-06-17 22:58:00,63.8,60.8,29.92,SSE,158,0.0,2.0,90,0.00,,---,0.00,VWS V14.01,2013-06-18 05:58:00,
2013-06-17 23:00:00,65.4,61.4,29.92,SSE,156,2.0,4.0,87,0.00,,---,0.00,VWS V14.01,2013-06-18 06:00:00,
2013-06-17 23:30:00,64.7,61.4,29.92,SSE,156,0.0,3.0,89,0.00,,---,0.00,VWS V14.01,2013-06-18 06:30:00,